Tips voor optimaal zoeken

Zoek op trefwoorden of stel een vraag
Typ een trefwoord zoals beurskoers, of stel een vraag zoals Wat is het laatste nieuws over Amerika?.
Exacte zinnen zoeken
Zet aanhalingstekens om een exacte woordcombinatie te vinden, bijvoorbeeld "Johan Cruijff ArenA".
Resultaten filteren
Na het zoeken kunt u filteren op publicatieperiode, bron, onderwerp en auteur.
Zoekopdrachten volgen
Wilt u updates ontvangen over een onderwerp? Via "Mijn nieuws" kunt u een term volgen.
Close sub menu
NASDAQ
NY-Nasdaq Composite 26.584,060 -- -- 23:15
Stijgers 1 dag
Dalers 1 dag
Indices 1 dag
AEX* 1.110,72+0,6%
Midkap* 1.110,96+0,1%
AMS Next 20®* 1.618,15+1,0%
FTSE100 10.833,480,0%
Dow Jones 53.686,11--
NASDAQ 26.584,06--
S&P500 7.747,71--
S&P Future 7.761,25+0,1%
BEL20** 5.879,05+0,9%
CAC 40** 8.286,40+0,1%
DAX 26.103,16+0,4%
* real time    ** slotkoers
AandelenKoersVorige+/-+/- %HoogLaagVolumeTijd
Adobe Inc 285,75 285,75 -- -- -- -- 85.624 22:15
Advanced Micro Devices Inc 456,16 456,16 -- -- -- -- 242.885 22:15
Airbnb Inc 185,25 185,25 -- -- -- -- 1.510 22:15
Align Technology Inc 159,86 159,86 -- -- -- -- 1.022 22:00
Alphabet Inc 339,08 339,08 -- -- -- -- 90.603 22:51
Alphabet Inc 342,48 342,48 -- -- -- -- 132.306 22:15
Amazon.com Inc 258,90 258,90 -- -- -- -- 215.530 22:15
American Electric Power Company 124,71 124,71 -- -- -- -- 793 22:15
Amgen Inc 444,12 444,12 -- -- -- -- 1.118 22:15
Analog Devices Inc 356,50 356,50 -- -- -- -- 5.056 22:15
Ansys 374,30 374,30 -- -- -- -- 0 22:00
Apple Inc 328,21 328,21 -- -- -- -- 251.311 22:51
Applied Materials Inc 435,91 435,91 -- -- -- -- 67.352 22:15
ASML Holding NV 1.646,19 1.646,19 -- -- -- -- 33.737 22:15
AstraZeneca Plc 164,77 164,77 -- -- -- -- 4.047 22:15
Atlassian Corporation PLC 194,68 194,68 -- -- -- -- 4.115 22:15
Autodesk Inc 237,52 237,52 -- -- -- -- 3.907 22:15
Automatic Data Processing Inc 283,53 283,53 -- -- -- -- 366 22:15
Baker Hughes Company 63,64 63,64 -- -- -- -- 1.970 22:15
Biogen Inc 224,51 224,51 -- -- -- -- 38 22:15
Booking Holdings Inc 195,13 195,13 -- -- -- -- 4.127 22:51
Broadcom Inc 357,16 357,16 -- -- -- -- 528.137 22:51
Cadence Design Systems Inc 304,88 304,88 -- -- -- -- 1.348 22:15
Charter Communications Inc 151,38 151,38 -- -- -- -- 857 22:15
Cintas Corporation 201,05 201,05 -- -- -- -- 94 22:15
Cisco Systems Inc 108,61 108,61 -- -- -- -- 19.758 22:15
Cognizant Technology Solutions Corp 64,64 64,64 -- -- -- -- 471 22:00
Comcast Corp 26,65 26,65 -- -- -- -- 2.069 22:15
Constellation Energy Corporation 285,05 285,05 -- -- -- -- 12.670 22:15
Copart Inc 33,58 33,58 -- -- -- -- 4.113 22:15
CoStar Group Inc 31,68 31,68 -- -- -- -- 969 22:15
Costco Wholesale Corporation 925,41 925,41 -- -- -- -- 3.107 22:15
CrowdStrike Holdings Inc 214,97 214,97 -- -- -- -- 36.032 22:15
CSX Corporation 48,99 48,99 -- -- -- -- 505 22:00
Datadog Inc 214,76 214,76 -- -- -- -- 6.227 22:15
DexCom Inc 89,71 89,71 -- -- -- -- 243 22:15
Diamondback Energy Inc 202,94 202,94 -- -- -- -- 255 22:15
Dollar Tree Inc 131,04 131,04 -- -- -- -- 103 22:15
eBay Inc 105,86 105,86 -- -- -- -- 324 22:15
Electronic Arts Inc 209,70 209,70 -- -- -- -- 0 22:15
Enphase Energy Inc 36,31 36,31 -- -- -- -- 17.605 22:15
Exelon Corporation 44,53 44,53 -- -- -- -- 237 22:15
Fastenal Company 49,23 49,23 -- -- -- -- 2.586 22:00
Fortinet Inc 156,36 156,36 -- -- -- -- 8.160 22:15
Gilead Sciences Inc 151,22 151,22 -- -- -- -- 2.573 22:15
Global Foundries Inc 44,53 44,53 -- -- -- -- 60.427 22:15
Honeywell International Inc 207,63 207,63 -- -- -- -- 685 22:15
IDEXX Laboratories Inc 529,29 529,29 -- -- -- -- 58 22:15
Illumina Inc 221,66 221,66 -- -- -- -- 174 22:15
Intel Corporation 91,67 91,67 -- -- -- -- 1.410.054 22:15
Intuit Inc 344,30 344,30 -- -- -- -- 8.266 22:15
Intuitive Surgical Inc 369,83 369,83 -- -- -- -- 3.340 22:15
JD com Inc 27,74 27,74 -- -- -- -- 93.542 22:15
Keurig Dr Pepper Inc 32,88 32,88 -- -- -- -- 1.287 22:00
KLA Corporation 172,94 172,94 -- -- -- -- 56.353 22:15
Kraft Heinz Company 25,42 25,42 -- -- -- -- 36.647 22:15
Lam Research Corporation 292,66 292,66 -- -- -- -- 40.335 22:15
Lucid Group Inc 4,60 4,60 -- -- -- -- 51.906 22:15
Lululemon Athletica Inc 121,77 121,77 -- -- -- -- 1.660.578 22:15
Marriott International Inc 336,07 336,07 -- -- -- -- 30 22:15
Marvell Technology Inc 208,83 208,83 -- -- -- -- 416.471 22:15
MercadoLibre Inc 1.991,06 1.991,06 -- -- -- -- 276 22:15
Meta Platforms Inc 610,68 610,68 -- -- -- -- 102.310 22:15
Microchip Technology Inc 73,11 73,11 -- -- -- -- 6.821 22:15
Micron Technology Inc 958,16 958,16 -- -- -- -- 757.593 22:15
Microsoft Corporation 510,12 510,12 -- -- -- -- 107.588 22:15
Moderna Inc 148,87 148,87 -- -- -- -- 341.616 22:15
Mondelez International Inc 61,45 61,45 -- -- -- -- 411 22:15
Monster Beverage Corporation 44,08 44,08 -- -- -- -- 1.403 22:15
Netflix Inc 82,67 82,67 -- -- -- -- 96.273 22:15
NVIDIA Corporation 228,45 228,45 -- -- -- -- 2.450.473 22:51
NXP Semiconductors NV 224,99 224,99 -- -- -- -- 7.442 22:51
O Reilly Automotive Inc 87,38 87,38 -- -- -- -- 170 22:15
Old Dominion Freight Line Inc 185,78 185,75 -- -- -- -- 28 22:00
PACCAR Inc 124,52 124,51 -- -- -- -- 880 22:00
Palo Alto Networks Inc 331,94 331,94 -- -- -- -- 29.543 22:15
Paychex Inc 125,08 125,08 -- -- -- -- 349 22:15
PayPal Holdings Inc 56,82 56,82 -- -- -- -- 39.943 22:15
PDD Holdings Inc 81,63 81,63 -- -- -- -- 40.170 22:15
PepsiCo Inc 140,02 140,02 -- -- -- -- 50.326 22:15
QUALCOMM Inc 168,57 168,57 -- -- -- -- 55.623 22:15
Regeneron Pharmaceuticals Inc 843,47 843,47 -- -- -- -- 36 22:15
Rivian Automotive Inc 15,91 15,91 -- -- -- -- 76.932 22:15
Ross Stores Inc 231,67 231,67 -- -- -- -- 359 22:15
Seagen 228,89 228,74 -- -- -- -- 0 22:00
SiriusXM Holdings Inc 29,77 29,77 -- -- -- -- 6.636 22:15
Starbucks Corporation 105,82 105,82 -- -- -- -- 1.688 22:15
Synopsys Inc 416,31 416,31 -- -- -- -- 2.809 22:15
T Mobile US Inc 188,02 188,02 -- -- -- -- 729 22:15
Tesla Inc 376,37 376,37 -- -- -- -- 1.541.456 22:15
Texas Instruments Incorporated 253,83 253,83 -- -- -- -- 9.353 22:15
Verisk Analytics Inc 190,60 190,60 -- -- -- -- 433 22:00
Vertex Pharmaceuticals Inc 557,96 557,96 -- -- -- -- 116 22:15
Walgreens Boots Alliance 11,98 11,98 -- -- -- -- 0 22:00
Warner Brothers Discovery Inc 28,37 28,37 -- -- -- -- 3.864 22:15
Workday Inc 206,92 206,92 -- -- -- -- 2.111 22:15
Xcel Energy Inc 76,34 76,34 -- -- -- -- 185 22:15
Zoom Communications Inc 98,14 98,14 -- -- -- -- 9.089 22:15
Zscaler Inc 177,80 177,80 -- -- -- -- 185.300 22:15
Powered by

Schakel browser notificaties in

Schakel browser notificaties in om meldingen te ontvangen op dit apparaat.

Browser notificaties inschakelen

U heeft browser notificaties voor fd.nl eerder geweigerd. Ga naar browser instellingen en sta browser notificaties toe voor fd.nl. De precieze handelingen zijn afhankelijk van uw browser.

U volgt een onderwerp

Wanneer deze zoekterm in een artikel voorkomt, zult u deze terugvinden in Mijn nieuws onder ‘Eurobonds’.

Wilt u via de FD App meldingen ontvangen voor dit onderwerp?

Wilt u via de FD App meldingen ontvangen voor dit onderwerp?

Ons privacy statement is van toepassing.

Meldingen

Wanneer deze zoekterm in een artikel voorkomt, zult u deze terugvinden in Mijn nieuws onder ‘Eurobonds’.

Wilt u via de FD App meldingen ontvangen voor dit onderwerp?

Wilt u via de FD App meldingen ontvangen voor dit onderwerp?